Time;durP1;ratioP1;P1;durP2;ratioP2;P2;SDS_P1;SDS_P2;PMS_P1;PMS_P2;Temp;Humidity;BMP_temperature;BMP_pressure;BME280_temperature;BME280_humidity;BME280_pressure;Samples;Min_cycle;Max_cycle;Signal;HPM_P1;HPM_P2
2023/09/25 00:00:01;;;;;;;11.83;4.73;;;;;;;21.96;75.62;94876.50;5069106;28;20408;-69
2023/09/25 00:02:28;;;;;;;12.13;4.40;;;;;;;22.08;75.48;94894.91;5068737;28;20500;-69
2023/09/25 00:04:53;;;;;;;12.65;4.20;;;;;;;21.94;75.70;94880.53;5068842;28;20414;-69
2023/09/25 00:07:18;;;;;;;12.67;4.03;;;;;;;21.95;75.97;94876.78;5069476;28;20413;-69
2023/09/25 00:09:44;;;;;;;12.43;3.88;;;;;;;22.01;75.74;94887.19;5070118;28;20531;-69
2023/09/25 00:12:09;;;;;;;15.23;4.83;;;;;;;22.05;75.71;94890.13;5068561;28;20535;-69
2023/09/25 00:14:35;;;;;;;8.53;4.00;;;;;;;21.89;75.38;94867.16;5068708;28;20847;-69
2023/09/25 00:17:00;;;;;;;8.23;4.05;;;;;;;22.04;75.07;94892.00;5069765;28;20190;-69
2023/09/25 00:19:25;;;;;;;12.83;4.50;;;;;;;21.97;75.62;94891.50;5068704;28;20459;-69
2023/09/25 00:21:51;;;;;;;17.55;4.38;;;;;;;21.99;75.26;94894.72;5068000;28;20441;-69
2023/09/25 00:24:17;;;;;;;8.97;3.90;;;;;;;21.94;75.62;94888.56;5069045;28;20441;-69
2023/09/25 00:26:42;;;;;;;12.02;4.28;;;;;;;21.93;74.91;94886.97;5068972;28;20463;-69
2023/09/25 00:29:10;;;;;;;13.50;4.60;;;;;;;21.96;74.12;94889.09;5068935;28;20771;-69
2023/09/25 00:31:37;;;;;;;11.93;3.92;;;;;;;21.89;74.63;94892.06;5068290;28;20768;-69
2023/09/25 00:34:02;;;;;;;8.20;3.92;;;;;;;21.95;73.80;94899.03;5067830;28;20433;-69
2023/09/25 00:36:28;;;;;;;15.27;4.40;;;;;;;21.94;74.01;94889.38;5068527;28;20433;-69
2023/09/25 00:38:53;;;;;;;12.68;4.55;;;;;;;21.89;73.83;94899.31;5068307;28;20410;-69
2023/09/25 00:41:18;;;;;;;8.00;3.53;;;;;;;21.88;73.49;94887.03;5068747;28;20457;-69
2023/09/25 00:43:44;;;;;;;13.00;4.00;;;;;;;21.84;73.50;94892.94;5068314;28;20424;-69
2023/09/25 00:46:09;;;;;;;16.60;3.90;;;;;;;21.80;74.00;94893.75;5068828;28;20406;-69
2023/09/25 00:48:35;;;;;;;8.18;3.90;;;;;;;21.75;73.55;94899.16;5067966;28;20261;-69
2023/09/25 00:51:02;;;;;;;9.00;3.50;;;;;;;21.65;73.66;94888.50;5068434;28;20410;-69
2023/09/25 00:53:29;;;;;;;6.05;3.20;;;;;;;21.71;73.67;94900.78;5069030;28;20236;-69
2023/09/25 00:55:55;;;;;;;9.35;3.60;;;;;;;21.70;73.40;94905.38;5067859;28;20437;-69
2023/09/25 00:58:20;;;;;;;10.20;3.40;;;;;;;21.74;73.50;94902.94;5068813;28;20437;-69
2023/09/25 01:00:46;;;;;;;11.53;4.20;;;;;;;21.72;73.70;94905.06;5068733;28;20517;-69
2023/09/25 01:03:13;;;;;;;8.70;3.90;;;;;;;21.75;73.34;94910.69;5068771;28;20257;-69
2023/09/25 01:05:39;;;;;;;7.28;3.55;;;;;;;21.65;73.90;94897.34;5067822;28;20417;-69
2023/09/25 01:08:06;;;;;;;9.82;3.45;;;;;;;21.57;73.83;94906.00;5068320;28;20495;-69
2023/09/25 01:10:32;;;;;;;8.73;3.50;;;;;;;21.55;74.12;94896.63;5067917;28;20472;-69
2023/09/25 01:12:59;;;;;;;11.90;3.72;;;;;;;21.50;74.36;94899.34;5068073;28;20402;-69
2023/09/25 01:15:25;;;;;;;8.65;3.90;;;;;;;21.45;74.63;94909.00;5068665;28;20543;-69
2023/09/25 01:17:51;;;;;;;10.18;4.03;;;;;;;21.42;74.83;94903.41;5068018;28;20437;-69
2023/09/25 01:20:17;;;;;;;14.57;4.28;;;;;;;21.36;75.60;94902.63;5067666;28;21059;-69
2023/09/25 01:22:44;;;;;;;12.37;4.10;;;;;;;21.32;76.14;94912.31;5067932;28;20521;-69
2023/09/25 01:25:10;;;;;;;7.55;3.90;;;;;;;21.29;75.90;94904.00;5068987;28;20548;-69
2023/09/25 01:27:40;;;;;;;9.80;3.88;;;;;;;21.34;76.19;94901.31;5068688;28;20363;-69
2023/09/25 01:30:09;;;;;;;14.82;4.20;;;;;;;21.24;76.37;94898.69;5067938;28;20890;-69
2023/09/25 01:32:38;;;;;;;9.35;3.67;;;;;;;21.13;76.82;94900.59;5068409;28;20471;-69
2023/09/25 01:35:11;;;;;;;8.15;3.42;;;;;;;21.05;77.49;94901.16;5068104;28;21254;-69
2023/09/25 01:37:37;;;;;;;9.43;3.80;;;;;;;20.99;77.63;94904.94;5067308;28;20790;-69
2023/09/25 01:40:05;;;;;;;10.27;4.07;;;;;;;21.05;77.27;94910.00;5067785;28;20410;-69
2023/09/25 01:42:30;;;;;;;10.43;4.07;;;;;;;20.95;77.55;94896.66;5067778;28;20855;-69
2023/09/25 01:44:55;;;;;;;8.90;4.00;;;;;;;20.85;77.97;94899.34;5067397;28;20422;-69
2023/09/25 01:47:21;;;;;;;11.67;4.30;;;;;;;20.88;77.43;94908.72;5068177;28;20437;-69
2023/09/25 01:49:46;;;;;;;9.87;3.93;;;;;;;20.95;77.29;94909.22;5067541;28;20418;-69
2023/09/25 01:52:14;;;;;;;7.60;3.80;;;;;;;20.90;77.33;94895.88;5068199;28;20413;-69
2023/09/25 01:54:39;;;;;;;9.93;4.20;;;;;;;20.94;77.57;94902.28;5070986;28;20420;-69
2023/09/25 01:57:04;;;;;;;11.77;4.00;;;;;;;20.95;77.08;94907.34;5070990;28;20518;-69
2023/09/25 01:59:30;;;;;;;10.52;3.80;;;;;;;20.92;77.10;94907.91;5070130;28;20445;-69
2023/09/25 02:01:55;;;;;;;10.23;4.00;;;;;;;20.90;77.01;94902.03;5071052;28;20417;-69
2023/09/25 02:04:21;;;;;;;11.93;3.90;;;;;;;21.02;76.34;94915.09;5071054;28;20413;-69
2023/09/25 02:06:46;;;;;;;7.60;3.93;;;;;;;20.91;76.27;94906.31;5071309;28;20406;-69
2023/09/25 02:09:12;;;;;;;6.93;3.63;;;;;;;21.03;76.04;94932.75;5069985;28;20424;-69
2023/09/25 02:11:37;;;;;;;7.90;3.80;;;;;;;21.05;75.80;94928.72;5068222;28;20417;-69
2023/09/25 02:14:03;;;;;;;11.88;3.78;;;;;;;21.01;75.72;94937.59;5071246;28;20429;-70
2023/09/25 02:16:29;;;;;;;8.45;3.50;;;;;;;20.91;75.44;94940.31;5071494;28;20511;-69
2023/09/25 02:18:55;;;;;;;7.45;3.55;;;;;;;20.79;75.97;94929.09;5070484;28;20494;-69
2023/09/25 02:21:20;;;;;;;11.18;3.67;;;;;;;20.66;75.87;94925.13;5070691;28;20904;-69
2023/09/25 02:23:46;;;;;;;7.27;3.20;;;;;;;20.60;75.34;94929.69;5071503;28;20441;-69
2023/09/25 02:26:11;;;;;;;10.73;3.55;;;;;;;20.62;75.63;94940.91;5070527;28;20412;-69
2023/09/25 02:28:37;;;;;;;8.97;3.77;;;;;;;20.57;75.76;94935.59;5071017;28;20410;-69
2023/09/25 02:31:02;;;;;;;6.00;3.28;;;;;;;20.63;75.15;94937.16;5070495;28;20539;-69
2023/09/25 02:33:28;;;;;;;6.23;3.23;;;;;;;20.60;74.80;94940.38;5070722;28;20401;-69
2023/09/25 02:36:12;;;;;;;6.53;3.30;;;;;;;20.55;74.91;94945.75;5070825;28;20918;-70
2023/09/25 02:38:38;;;;;;;9.30;3.40;;;;;;;20.53;74.70;94929.16;5069039;28;20421;-69
2023/09/25 02:41:04;;;;;;;8.82;3.25;;;;;;;20.51;74.79;94954.56;5069439;28;20412;-69
2023/09/25 02:43:29;;;;;;;11.48;3.50;;;;;;;20.45;75.45;94953.78;5069994;28;20413;-69
2023/09/25 02:45:55;;;;;;;6.00;3.45;;;;;;;20.50;74.69;94961.00;5070064;28;20441;-69
2023/09/25 02:48:21;;;;;;;8.30;3.30;;;;;;;20.43;75.39;94963.16;5070484;28;20417;-69
2023/09/25 02:50:49;;;;;;;6.72;3.70;;;;;;;20.34;75.32;94958.34;5070194;28;20518;-69
2023/09/25 02:53:18;;;;;;;7.70;3.45;;;;;;;20.30;75.17;94953.78;5070205;28;20421;-69
2023/09/25 02:55:49;;;;;;;7.43;3.58;;;;;;;20.38;75.19;94958.63;5069896;28;20423;-69
2023/09/25 02:58:15;;;;;;;5.75;3.60;;;;;;;20.43;74.96;94963.16;5070278;28;20413;-69
2023/09/25 03:00:41;;;;;;;7.50;3.90;;;;;;;20.43;75.30;94961.28;5070031;28;20410;-69
2023/09/25 03:03:06;;;;;;;4.95;3.80;;;;;;;20.36;75.15;94957.28;5070142;28;20416;-69
2023/09/25 03:05:32;;;;;;;8.13;3.57;;;;;;;20.03;75.62;94921.19;5069049;28;20514;-68
2023/09/25 03:07:57;;;;;;;9.43;4.13;;;;;;;20.24;75.78;94971.69;5069549;28;20462;-69
2023/09/25 03:10:23;;;;;;;11.03;4.17;;;;;;;20.25;75.89;94965.25;5070035;28;20424;-69
2023/09/25 03:12:48;;;;;;;11.23;4.20;;;;;;;20.20;76.05;94967.16;5069799;28;20530;-69
2023/09/25 03:15:13;;;;;;;6.68;3.67;;;;;;;20.26;75.95;94969.53;5069444;28;20901;-69
2023/09/25 03:17:40;;;;;;;8.65;4.65;;;;;;;20.31;76.09;94977.59;5068323;28;20524;-69
2023/09/25 03:20:14;;;;;;;9.10;3.70;;;;;;;20.28;76.03;94982.66;5069904;28;20898;-69
2023/09/25 03:22:40;;;;;;;8.93;4.10;;;;;;;20.32;75.85;94984.50;5068567;28;20457;-69
2023/09/25 03:25:06;;;;;;;11.55;4.80;;;;;;;20.29;75.95;94992.28;5068653;28;20417;-69
2023/09/25 03:27:32;;;;;;;6.88;4.03;;;;;;;20.25;75.80;94994.69;5069345;28;20173;-69
2023/09/25 03:29:57;;;;;;;7.97;4.60;;;;;;;20.23;75.21;94980.81;5069087;28;20488;-69
2023/09/25 03:32:23;;;;;;;7.47;4.53;;;;;;;20.18;75.63;94988.00;5070054;28;20421;-69
2023/09/25 03:34:48;;;;;;;10.63;4.75;;;;;;;20.27;75.18;94986.41;5069371;28;20410;-69
2023/09/25 03:37:13;;;;;;;8.90;5.13;;;;;;;20.25;75.05;94993.88;5069286;28;20491;-69
2023/09/25 03:39:39;;;;;;;7.30;4.55;;;;;;;20.32;74.76;94992.53;5070492;28;20912;-69
2023/09/25 03:42:04;;;;;;;8.13;5.17;;;;;;;20.24;75.02;94995.75;5069286;28;20902;-69
2023/09/25 03:44:30;;;;;;;10.53;5.47;;;;;;;20.17;74.80;94978.38;5067309;28;20776;-69
2023/09/25 03:46:55;;;;;;;10.15;5.20;;;;;;;20.33;75.12;95004.84;5068616;28;20554;-69
2023/09/25 03:49:21;;;;;;;10.97;6.17;;;;;;;20.39;74.99;95003.00;5068860;28;20470;-69
2023/09/25 03:51:46;;;;;;;11.00;5.70;;;;;;;20.33;74.78;94999.50;5069734;28;20201;-69
2023/09/25 03:54:12;;;;;;;12.37;6.53;;;;;;;20.38;75.19;95003.28;5068772;28;20495;-69
2023/09/25 03:56:37;;;;;;;10.93;6.53;;;;;;;20.38;75.15;95005.94;5068605;28;20930;-69
2023/09/25 03:59:03;;;;;;;10.45;6.78;;;;;;;20.40;75.56;95001.16;5068300;28;20409;-69
2023/09/25 04:01:29;;;;;;;14.02;7.63;;;;;;;20.37;75.68;95002.47;5068179;28;20411;-69
2023/09/25 04:03:55;;;;;;;9.75;7.10;;;;;;;20.33;76.00;94996.00;5069510;28;20170;-69
2023/09/25 04:06:20;;;;;;;13.85;7.07;;;;;;;20.32;76.39;94994.44;5069199;28;20779;-69
2023/09/25 04:08:46;;;;;;;13.13;7.53;;;;;;;20.28;76.62;94996.03;5067039;28;20440;-69
2023/09/25 04:11:11;;;;;;;11.10;8.13;;;;;;;20.22;77.05;95010.47;5067641;28;20413;-69
2023/09/25 04:13:38;;;;;;;13.10;7.32;;;;;;;20.10;77.84;94997.34;5068837;28;21018;-69
2023/09/25 04:16:06;;;;;;;13.65;7.68;;;;;;;19.99;78.08;94971.69;5068578;28;20582;-69
2023/09/25 04:18:32;;;;;;;11.40;8.53;;;;;;;19.98;78.59;94997.59;5068444;28;21265;-69
2023/09/25 04:21:02;;;;;;;15.15;8.57;;;;;;;19.89;79.08;94975.13;5068835;28;20438;-69
2023/09/25 04:23:28;;;;;;;11.98;8.48;;;;;;;20.10;78.66;95002.69;5068116;28;20488;-69
2023/09/25 04:26:00;;;;;;;14.05;7.85;;;;;;;19.80;79.14;94983.97;5066778;28;20783;-69
2023/09/25 04:28:28;;;;;;;11.00;7.40;;;;;;;19.89;79.57;95012.56;5068073;28;20402;-69
2023/09/25 04:30:54;;;;;;;12.60;6.68;;;;;;;19.85;80.29;95016.84;5067737;28;20413;-69
2023/09/25 04:33:20;;;;;;;10.30;6.43;;;;;;;19.91;79.80;95017.63;5067953;28;20413;-69
2023/09/25 04:35:45;;;;;;;7.47;5.90;;;;;;;19.83;80.31;95023.50;5067822;28;20413;-70
2023/09/25 04:38:12;;;;;;;12.35;6.72;;;;;;;19.80;80.24;95030.19;5066832;28;20906;-69
2023/09/25 04:40:38;;;;;;;10.57;6.90;;;;;;;19.63;81.01;95012.78;5068934;28;20219;-69
2023/09/25 04:43:03;;;;;;;15.57;7.65;;;;;;;19.67;81.37;95025.34;5068173;28;20996;-70
2023/09/25 04:45:29;;;;;;;13.95;9.07;;;;;;;19.65;81.37;95021.31;5068511;28;20417;-69
2023/09/25 04:47:55;;;;;;;12.53;8.07;;;;;;;19.47;81.80;95010.03;5068730;28;21215;-69
2023/09/25 04:50:23;;;;;;;13.67;8.93;;;;;;;19.47;82.87;95015.38;5068013;28;20405;-69
2023/09/25 04:52:49;;;;;;;11.63;8.27;;;;;;;19.46;82.79;95027.09;5068257;28;20560;-69
2023/09/25 04:55:15;;;;;;;14.00;8.38;;;;;;;19.50;82.13;95028.22;5068224;28;20413;-69
2023/09/25 04:57:46;;;;;;;10.27;7.97;;;;;;;19.58;81.93;95024.25;5068742;28;20422;-69
2023/09/25 05:00:26;;;;;;;10.95;7.55;;;;;;;19.52;82.58;95026.09;5068845;28;20410;-69
2023/09/25 05:02:55;;;;;;;12.30;8.40;;;;;;;19.54;82.72;95026.66;5067415;28;20836;-69
2023/09/25 05:05:22;;;;;;;12.32;7.70;;;;;;;19.38;83.45;95018.78;5068185;28;20634;-69
2023/09/25 05:07:49;;;;;;;12.10;7.32;;;;;;;19.32;84.06;95026.00;5067649;28;20961;-69
2023/09/25 05:10:17;;;;;;;12.00;8.43;;;;;;;19.41;83.67;95027.09;5067988;28;20421;-69
2023/09/25 05:12:44;;;;;;;12.32;9.02;;;;;;;19.28;84.20;95029.44;5068024;28;20403;-69
2023/09/25 05:15:10;;;;;;;13.73;9.18;;;;;;;19.28;84.36;95035.59;5067723;28;20420;-70
2023/09/25 05:17:41;;;;;;;17.35;9.55;;;;;;;19.19;84.87;95037.97;5068085;28;20433;-70
2023/09/25 05:20:11;;;;;;;12.45;8.93;;;;;;;19.22;85.28;95041.97;5068505;28;21230;-69
2023/09/25 05:22:41;;;;;;;12.85;8.40;;;;;;;19.23;84.88;95041.69;5068123;28;20437;-69
2023/09/25 05:25:09;;;;;;;11.00;7.32;;;;;;;19.10;84.59;95047.53;5067919;28;20505;-69
2023/09/25 05:27:39;;;;;;;10.38;7.00;;;;;;;19.06;84.06;95046.41;5067682;28;20994;-70
2023/09/25 05:30:09;;;;;;;11.35;7.13;;;;;;;18.98;84.97;95048.78;5072287;28;20410;-70
2023/09/25 05:32:35;;;;;;;17.42;9.23;;;;;;;18.99;84.80;95035.19;5071551;28;20530;-71
2023/09/25 05:35:00;;;;;;;12.02;7.18;;;;;;;19.21;83.72;95054.50;5070466;28;20981;-70
2023/09/25 05:37:26;;;;;;;11.53;7.03;;;;;;;19.27;83.82;95059.88;5071920;28;20589;-70
2023/09/25 05:39:51;;;;;;;14.47;6.97;;;;;;;19.31;83.56;95066.28;5072514;28;20483;-69
2023/09/25 05:42:17;;;;;;;12.50;7.13;;;;;;;19.33;83.21;95064.97;5071842;28;20420;-70
2023/09/25 05:44:42;;;;;;;9.18;6.53;;;;;;;19.38;82.96;95062.31;5072227;28;20504;-70
2023/09/25 05:47:07;;;;;;;15.45;6.45;;;;;;;19.44;82.56;95073.84;5072492;28;20260;-70
2023/09/25 05:49:33;;;;;;;14.27;7.45;;;;;;;19.45;82.89;95080.78;5070959;28;20567;-69
2023/09/25 05:51:58;;;;;;;15.15;7.28;;;;;;;19.39;82.70;95073.81;5072509;28;20194;-70
2023/09/25 05:54:23;;;;;;;13.20;6.28;;;;;;;19.44;83.13;95073.84;5072458;28;20170;-70
2023/09/25 05:56:49;;;;;;;12.80;6.68;;;;;;;19.41;83.29;95056.47;5072257;28;20201;-70
2023/09/25 05:59:15;;;;;;;14.50;7.35;;;;;;;19.52;82.78;95070.69;5072194;28;20206;-70
2023/09/25 06:01:42;;;;;;;13.77;6.88;;;;;;;19.44;82.65;95055.94;5072568;28;20651;-69
2023/09/25 06:04:08;;;;;;;16.52;6.53;;;;;;;19.58;82.70;95078.47;5071903;28;20170;-70
2023/09/25 06:06:33;;;;;;;12.82;6.20;;;;;;;19.47;82.62;95050.09;5069261;28;20185;-70
2023/09/25 06:08:59;;;;;;;9.48;6.22;;;;;;;19.77;82.07;95069.97;5072249;28;20299;-70
2023/09/25 06:11:25;;;;;;;15.65;6.78;;;;;;;19.87;81.79;95078.84;5072037;28;20174;-69
2023/09/25 06:13:50;;;;;;;14.82;7.32;;;;;;;19.89;81.44;95068.66;5071996;28;20175;-69
2023/09/25 06:16:16;;;;;;;12.38;6.75;;;;;;;19.97;82.27;95086.09;5071836;28;20198;-71
2023/09/25 06:18:42;;;;;;;13.38;7.50;;;;;;;20.11;81.61;95083.69;5071637;28;20709;-71
2023/09/25 06:21:12;;;;;;;13.60;7.90;;;;;;;20.29;80.83;95081.31;5072039;28;20270;-71
2023/09/25 06:23:42;;;;;;;17.55;8.00;;;;;;;20.58;79.83;95086.97;5071824;28;20183;-69
2023/09/25 06:26:08;;;;;;;14.50;7.75;;;;;;;20.69;79.71;95091.25;5071507;28;20631;-68
2023/09/25 06:28:34;;;;;;;14.10;8.50;;;;;;;20.56;78.94;95073.09;5071357;28;20178;-69
2023/09/25 06:31:00;;;;;;;11.07;7.95;;;;;;;20.39;79.91;95101.97;5071670;28;20266;-69
2023/09/25 06:33:25;;;;;;;11.43;7.30;;;;;;;20.29;80.81;95091.22;5071569;28;20268;-69
2023/09/25 06:35:52;;;;;;;11.30;7.70;;;;;;;20.19;80.98;95112.59;5071231;28;20178;-68
2023/09/25 06:38:18;;;;;;;12.13;7.65;;;;;;;20.26;81.67;95108.59;5071260;28;20178;-69
2023/09/25 06:40:44;;;;;;;14.60;7.85;;;;;;;20.29;81.04;95113.41;5071041;28;20568;-71
2023/09/25 06:43:10;;;;;;;14.77;8.27;;;;;;;20.52;80.45;95117.47;5071417;28;20265;-70
2023/09/25 06:45:35;;;;;;;9.65;7.63;;;;;;;20.60;80.12;95116.94;5071607;28;20285;-71
2023/09/25 06:48:00;;;;;;;13.75;7.97;;;;;;;20.55;80.05;95124.97;5071597;28;20179;-70
2023/09/25 06:50:26;;;;;;;15.65;8.30;;;;;;;20.47;80.08;95120.16;5071603;28;20587;-71
2023/09/25 06:52:51;;;;;;;15.48;8.32;;;;;;;20.50;80.49;95130.31;5071711;28;20186;-71
2023/09/25 06:55:17;;;;;;;11.60;8.00;;;;;;;20.53;80.12;95118.28;5071359;28;20703;-71
2023/09/25 06:57:42;;;;;;;13.75;8.55;;;;;;;20.72;80.28;95122.03;5071107;28;20289;-69
2023/09/25 07:00:09;;;;;;;14.27;8.30;;;;;;;20.80;78.65;95104.66;5071497;28;20179;-71
2023/09/25 07:02:36;;;;;;;18.70;8.38;;;;;;;21.23;77.59;95117.47;5071306;28;20189;-71
2023/09/25 07:05:02;;;;;;;18.13;8.88;;;;;;;21.51;76.48;95136.72;5071146;28;20265;-69
2023/09/25 07:07:28;;;;;;;16.80;9.15;;;;;;;21.60;75.65;95132.41;5071242;28;20231;-69
2023/09/25 07:09:54;;;;;;;18.13;8.50;;;;;;;21.69;75.33;95136.13;5070793;28;20174;-69
2023/09/25 07:12:19;;;;;;;15.55;8.60;;;;;;;21.15;75.70;95118.00;5069068;28;20654;-69
2023/09/25 07:14:58;;;;;;;17.92;9.05;;;;;;;21.04;77.49;95127.13;5070565;28;20200;-69
2023/09/25 07:17:24;;;;;;;16.02;8.93;;;;;;;21.20;76.23;95118.00;5070860;28;20675;-70
2023/09/25 07:19:51;;;;;;;16.85;8.88;;;;;;;21.34;75.74;95123.63;5070997;28;20175;-69
2023/09/25 07:22:16;;;;;;;15.90;8.38;;;;;;;21.60;75.57;95132.41;5070105;28;21097;-69
2023/09/25 07:24:42;;;;;;;15.27;8.07;;;;;;;22.04;72.88;95122.63;5070331;28;20292;-70
2023/09/25 07:27:08;;;;;;;15.27;8.13;;;;;;;22.72;69.62;95141.50;5070121;28;20201;-69
2023/09/25 07:29:34;;;;;;;10.88;7.18;;;;;;;22.92;67.75;95149.44;5070423;28;20231;-70
2023/09/25 07:32:00;;;;;;;13.07;7.78;;;;;;;23.04;64.79;95154.44;5070048;28;20175;-69
2023/09/25 07:34:25;;;;;;;13.38;8.15;;;;;;;23.12;65.35;95153.03;5069896;28;20621;-69
2023/09/25 07:36:51;;;;;;;12.20;7.63;;;;;;;23.24;64.95;95151.59;5069876;28;20202;-69
2023/09/25 07:39:22;;;;;;;15.43;8.85;;;;;;;23.40;65.16;95149.56;5069901;28;20628;-69
2023/09/25 07:41:48;;;;;;;12.77;7.22;;;;;;;23.43;63.53;95157.06;5070811;28;20642;-69
2023/09/25 07:44:13;;;;;;;14.35;8.13;;;;;;;23.23;63.38;95139.25;5069031;28;20198;-70
2023/09/25 07:46:39;;;;;;;14.10;7.60;;;;;;;23.24;62.40;95150.78;5069770;28;20185;-70
2023/09/25 07:49:06;;;;;;;9.75;7.25;;;;;;;23.53;62.30;95151.59;5068825;28;20185;-70
2023/09/25 07:51:32;;;;;;;9.48;7.50;;;;;;;23.60;61.75;95143.22;5064527;28;20175;-70
2023/09/25 07:53:58;;;;;;;13.05;8.00;;;;;;;23.74;61.69;95146.00;5065917;28;20182;-70
2023/09/25 07:56:27;;;;;;;18.80;7.43;;;;;;;23.86;61.53;95151.78;5068851;28;20281;-70
2023/09/25 07:58:55;;;;;;;9.07;7.07;;;;;;;23.92;60.42;95161.41;5068376;28;20230;-70
2023/09/25 08:01:22;;;;;;;16.33;7.68;;;;;;;23.96;59.70;95159.72;5068704;28;20175;-70
2023/09/25 08:03:51;;;;;;;13.40;6.30;;;;;;;23.38;60.97;95132.91;5069255;28;20232;-70
2023/09/25 08:06:19;;;;;;;12.45;6.22;;;;;;;23.31;61.62;95157.44;5068624;28;20175;-69
2023/09/25 08:08:45;;;;;;;13.38;6.43;;;;;;;22.81;62.20;95131.81;5069072;28;20170;-70
2023/09/25 08:11:10;;;;;;;13.55;7.00;;;;;;;22.91;61.19;95141.69;5068226;28;20236;-69
2023/09/25 08:13:35;;;;;;;9.02;5.43;;;;;;;22.64;61.80;95136.75;5068188;28;20706;-70
2023/09/25 08:16:05;;;;;;;10.77;5.70;;;;;;;22.99;62.47;95143.75;5068401;28;20170;-69
2023/09/25 08:18:30;;;;;;;10.95;6.25;;;;;;;22.94;63.36;95141.09;5067035;28;20750;-69
2023/09/25 08:20:56;;;;;;;9.52;5.55;;;;;;;23.15;61.81;95122.94;5068429;28;20265;-70
2023/09/25 08:23:21;;;;;;;9.93;5.15;;;;;;;23.05;62.76;95137.25;5068267;28;20263;-69
2023/09/25 08:25:48;;;;;;;12.07;6.13;;;;;;;22.82;63.43;95128.06;5068763;28;20180;-69
2023/09/25 08:28:16;;;;;;;9.60;5.35;;;;;;;22.86;63.68;95118.34;5066963;28;20190;-69
2023/09/25 08:30:42;;;;;;;8.43;5.32;;;;;;;23.02;64.02;95129.75;5067172;28;20190;-69
2023/09/25 08:33:07;;;;;;;8.13;5.00;;;;;;;22.91;61.97;95110.25;5066164;28;20625;-69
2023/09/25 08:35:33;;;;;;;9.82;5.78;;;;;;;23.12;62.08;95136.91;5068542;28;20166;-69
2023/09/25 08:37:59;;;;;;;13.55;5.65;;;;;;;22.92;61.61;95103.78;5067275;28;20267;-69
2023/09/25 08:40:24;;;;;;;8.43;5.47;;;;;;;23.13;61.90;95133.94;5068287;28;20194;-69
2023/09/25 08:42:53;;;;;;;9.30;5.10;;;;;;;23.37;61.50;95136.69;5068095;28;20261;-69
2023/09/25 08:45:20;;;;;;;11.00;5.32;;;;;;;23.43;61.17;95137.44;5066495;28;20500;-69
2023/09/25 08:47:45;;;;;;;7.32;4.57;;;;;;;23.42;60.33;95147.41;5067326;28;20182;-68
2023/09/25 08:50:12;;;;;;;7.55;3.70;;;;;;;23.11;60.64;95133.44;5067759;28;20243;-69
2023/09/25 08:52:38;;;;;;;6.65;4.40;;;;;;;22.97;61.51;95129.00;5068662;28;20639;-69
2023/09/25 08:55:04;;;;;;;8.98;4.88;;;;;;;22.95;62.06;95135.44;5068097;28;20167;-69
2023/09/25 08:57:29;;;;;;;6.97;4.85;;;;;;;23.03;62.00;95125.97;5068445;28;20277;-69
2023/09/25 08:59:55;;;;;;;7.82;4.50;;;;;;;23.20;61.13;95122.88;5067881;28;20282;-69
2023/09/25 09:02:21;;;;;;;7.53;4.57;;;;;;;23.50;60.56;95130.69;5067308;28;20170;-69
2023/09/25 09:04:46;;;;;;;5.72;3.83;;;;;;;23.54;59.52;95122.81;5066743;28;20174;-69
2023/09/25 09:07:14;;;;;;;5.65;3.42;;;;;;;23.66;59.96;95129.41;5066579;28;20190;-69
2023/09/25 09:09:40;;;;;;;6.97;3.72;;;;;;;23.36;60.49;95131.56;5066422;28;20208;-69
2023/09/25 09:12:07;;;;;;;8.05;4.53;;;;;;;23.05;61.53;95121.13;5066532;28;20174;-69
2023/09/25 09:14:37;;;;;;;5.95;3.65;;;;;;;23.03;62.02;95122.50;5067402;28;20205;-69
2023/09/25 09:17:07;;;;;;;9.30;3.58;;;;;;;23.02;62.30;95147.75;5066852;28;20365;-69
2023/09/25 09:19:35;;;;;;;7.25;3.90;;;;;;;22.83;62.93;95134.22;5067950;28;20174;-69
2023/09/25 09:22:05;;;;;;;6.10;3.13;;;;;;;22.70;62.94;95116.03;5067179;28;20221;-68
2023/09/25 09:24:37;;;;;;;7.68;3.42;;;;;;;22.64;63.81;95120.63;5067777;28;20629;-69
2023/09/25 09:27:07;;;;;;;7.80;4.38;;;;;;;22.77;63.69;95132.63;5066255;28;20171;-69
2023/09/25 09:29:43;;;;;;;12.73;4.22;;;;;;;22.72;63.74;95121.91;5067705;28;20189;-69
2023/09/25 09:32:10;;;;;;;5.55;3.85;;;;;;;22.73;64.13;95134.25;5067491;28;20164;-69
2023/09/25 09:34:39;;;;;;;7.57;3.10;;;;;;;22.80;63.95;95119.47;5067862;28;20177;-69
2023/09/25 09:37:08;;;;;;;14.95;4.18;;;;;;;22.79;63.81;95127.78;5067651;28;20190;-69
2023/09/25 09:39:34;;;;;;;5.78;3.97;;;;;;;22.61;64.36;95137.28;5067591;28;20185;-69
2023/09/25 09:42:05;;;;;;;8.75;3.80;;;;;;;22.61;64.88;95131.13;5067598;28;20170;-69
2023/09/25 09:44:32;;;;;;;5.82;3.08;;;;;;;22.63;63.46;95124.41;5067580;28;20170;-70
2023/09/25 09:47:02;;;;;;;7.68;3.67;;;;;;;22.77;63.83;95128.06;5066487;28;20159;-69
2023/09/25 09:49:30;;;;;;;6.45;3.38;;;;;;;22.83;63.49;95129.63;5067619;28;20697;-69
2023/09/25 09:51:56;;;;;;;9.02;3.67;;;;;;;22.85;63.40;95129.34;5067360;28;20187;-69
2023/09/25 09:54:23;;;;;;;10.63;4.00;;;;;;;22.98;62.98;95098.38;5067668;28;20675;-69
2023/09/25 09:56:49;;;;;;;10.00;3.75;;;;;;;23.07;61.55;95107.44;5067690;28;20199;-69
2023/09/25 09:59:15;;;;;;;6.07;3.47;;;;;;;23.21;62.02;95127.16;5067243;28;20287;-69
2023/09/25 10:01:44;;;;;;;6.35;3.95;;;;;;;23.23;61.43;95131.19;5067628;28;20166;-68
2023/09/25 10:04:10;;;;;;;4.40;2.90;;;;;;;23.03;61.78;95130.53;5067916;28;20654;-69
2023/09/25 10:06:46;;;;;;;4.95;3.15;;;;;;;23.05;62.35;95125.69;5068417;28;20631;-69
2023/09/25 10:09:13;;;;;;;8.73;3.60;;;;;;;23.12;61.91;95126.16;5067678;28;20255;-69
2023/09/25 10:11:42;;;;;;;6.53;3.30;;;;;;;23.19;61.58;95132.00;5066929;28;20183;-69
2023/09/25 10:14:08;;;;;;;8.30;3.00;;;;;;;23.00;62.31;95123.06;5067090;28;20694;-69
2023/09/25 10:16:57;;;;;;;5.20;3.35;;;;;;;23.19;62.30;95130.13;5071371;28;20202;-69
2023/09/25 10:19:52;;;;;;;7.40;3.13;;;;;;;23.07;62.05;95128.91;5070944;28;20556;-69
2023/09/25 10:22:30;;;;;;;6.40;3.47;;;;;;;22.98;61.87;95150.22;5070451;28;20283;-69
2023/09/25 10:25:11;;;;;;;6.57;3.40;;;;;;;22.95;62.60;95127.38;5070598;28;20176;-69
2023/09/25 10:27:37;;;;;;;15.63;4.20;;;;;;;22.95;62.54;95123.91;5069941;28;20170;-69
2023/09/25 10:30:13;;;;;;;5.88;3.35;;;;;;;22.95;62.41;95105.91;5069884;28;20239;-69
2023/09/25 10:32:40;;;;;;;9.18;3.42;;;;;;;23.22;61.90;95112.66;5069421;28;20200;-68
2023/09/25 10:35:37;;;;;;;6.65;3.20;;;;;;;23.32;61.72;95126.78;5071270;28;20248;-69
2023/09/25 10:38:28;;;;;;;11.60;3.75;;;;;;;23.32;61.56;95116.03;5070452;28;20687;-69
2023/09/25 10:40:55;;;;;;;9.98;4.38;;;;;;;23.37;61.90;95109.00;5070761;28;20171;-69
2023/09/25 10:43:23;;;;;;;7.20;3.17;;;;;;;23.42;61.48;95106.28;5070777;28;20555;-69
2023/09/25 10:45:49;;;;;;;6.82;3.28;;;;;;;23.20;61.36;95118.31;5070767;28;20551;-69
2023/09/25 10:48:16;;;;;;;6.15;3.20;;;;;;;23.10;62.15;95139.88;5070673;28;20182;-69
2023/09/25 10:50:43;;;;;;;7.00;3.50;;;;;;;23.08;61.51;95127.84;5070651;28;20166;-69
2023/09/25 10:53:10;;;;;;;7.35;3.13;;;;;;;23.03;61.63;95101.00;5070378;28;20198;-69
2023/09/25 10:55:36;;;;;;;7.82;3.53;;;;;;;23.20;61.70;95098.69;5070580;28;20171;-68
2023/09/25 10:58:03;;;;;;;5.22;3.63;;;;;;;23.29;61.33;95119.28;5070479;28;20205;-69
2023/09/25 11:00:28;;;;;;;6.70;3.53;;;;;;;23.17;60.64;95113.50;5069109;28;20174;-69
2023/09/25 11:02:54;;;;;;;6.47;3.75;;;;;;;23.20;60.54;95133.63;5070555;28;20178;-69
2023/09/25 11:05:21;;;;;;;8.68;3.15;;;;;;;23.18;60.54;95125.03;5070275;28;20166;-69
2023/09/25 11:07:47;;;;;;;8.07;3.25;;;;;;;23.23;60.49;95112.38;5070219;28;20182;-69
2023/09/25 11:10:16;;;;;;;7.43;3.50;;;;;;;23.20;60.04;95117.50;5070299;28;20174;-69
2023/09/25 11:12:42;;;;;;;4.43;3.00;;;;;;;23.25;59.67;95125.53;5070204;28;20174;-69
2023/09/25 11:15:12;;;;;;;8.98;3.20;;;;;;;23.22;60.39;95109.97;5070355;28;20174;-69
2023/09/25 11:17:40;;;;;;;8.23;4.90;;;;;;;23.21;65.90;95114.53;5070097;28;20195;-69
2023/09/25 11:20:22;;;;;;;11.30;4.88;;;;;;;23.18;67.29;95117.78;5070135;28;20170;-69
2023/09/25 11:22:48;;;;;;;9.27;4.53;;;;;;;23.21;67.13;95111.03;5069927;28;20214;-69
2023/09/25 11:25:15;;;;;;;12.35;6.28;;;;;;;23.10;67.34;95110.34;5069581;28;20174;-69
2023/09/25 11:27:53;;;;;;;7.05;4.78;;;;;;;22.90;67.94;95105.97;5069482;28;20174;-69